METAR Data
IDs: Format: Raw Decoded Include TAF

Data at: 1410 UTC 14 Dec 2019

PAVD 141405Z AUTO VRB03KT 10SM UP BKN011 OVC028 01/M01 A2986 RMK AO2 P0001 FZRANO
PAVD 141356Z AUTO 34003KT 9SM UP BKN009 OVC025 01/M01 A2985 RMK AO2 UPB41SNE41 SLP109 P0003 T00061006 FZRANO
PAVD 141308Z AUTO 09003KT 3SM -SN BR BKN006 OVC014 01/M01 A2984 RMK AO2 CIG 004V010 P0000 FZRANO
PAVD 141256Z AUTO 04004KT 1 3/4SM -SN BR OVC006 01/M01 A2984 RMK AO2 VIS 1V4 CIG 004V011 SLP105 P0001 T00061006 FZRANO
PAVD 141240Z AUTO 03004KT 1 1/2SM -SN BR BKN006 OVC012 01/M01 A2984 RMK AO2 VIS 1 1/4V3 CIG 004V008 P0001 FZRANO
PAVD 141233Z AUTO 06004KT 2SM -SN BR SCT007 OVC012 01/M01 A2984 RMK AO2 VIS 1V3 P0001 FZRANO
PAVD 141223Z AUTO 00000KT 1 3/4SM -SN BR OVC012 01/00 A2984 RMK AO2 P0001 FZRANO
PAVD 141216Z AUTO 03003KT 3SM -SN BR OVC014 01/00 A2984 RMK AO2 P0001 FZRANO
PAVD 141156Z AUTO VRB03KT 4SM -SN BR OVC018 01/M01 A2983 RMK AO2 RAE35UPB07E17SNB35 SLP100 P0003 60006 70007 T00111006 10044 21022 51028 FZRANO
PAVD 141056Z AUTO 00000KT 10SM -RA BKN020 OVC027 02/M01 A2980 RMK AO2 SLP092 P0003 T00221006 FZRANO
PAVD 141007Z AUTO 13005KT 10SM -RA BKN022 OVC032 03/M01 A2978 RMK AO2 P0001
PAVD 140956Z AUTO 13006KT 10SM -RA SCT024 OVC032 03/M01 A2978 RMK AO2 RAB11 SLP084 P0000 T00331011
PAVD 140945Z AUTO 18003KT 10SM -RA SCT022 OVC032 03/M02 A2978 RMK AO2 RAB11 P0000
PAVD 140930Z AUTO 00000KT 10SM -RA SCT020 BKN028 OVC035 04/M02 A2977 RMK AO2 RAB11 P0000
PAVD 140856Z AUTO 00000KT 10SM FEW038 SCT049 OVC060 04/M03 A2975 RMK AO2 SLP072 T00441028 400441044 53010
PAVD 140756Z AUTO 20003KT 10SM BKN060 OVC070 04/M03 A2972 RMK AO2 SLP064 T00391033
PAVD 140656Z 00000KT 10SM OVC075 M01/M02 A2972 RMK AO2 SLP062 T10111022
PAVD 140556Z 24004KT 10SM OVC065 M02/M03 A2972 RMK AO2 SLP062 T10221028 11017 21044 53003
PAVD 140456Z 00000KT 10SM SCT085 M02/M03 A2971 RMK AO2 SLP059 T10221033
PAVD 140356Z 06004KT 10SM BKN110 M03/M03 A2970 RMK AO2 SLP055 T10281033
PAVD 140256Z 00000KT 10SM FEW110 M04/M05 A2971 RMK AO2 SLP059 T10391050 58015
PAVD 140156Z 13003KT 10SM FEW110 M04/M05 A2972 RMK AO2 SLP063 T10441050
PAVD 140056Z 04005KT 10SM FEW090 M03/M04 A2974 RMK AO2 SLP070 T10331044
PAVD 132356Z 00000KT 10SM FEW090 M03/M05 A2975 RMK AO2 SLP074 60000 T10331050 10006 21033 53001
PAVD 132256Z 00000KT 10SM FEW085 M02/M03 A2974 RMK AO2 SLP071 T10221033
PAVD 132156Z 00000KT 10SM FEW085 FEW110 M01/M02 A2975 RMK AO2 SLP072 T10111022
PAVD 132056Z 13004KT 10SM SCT085 SCT110 M02/M03 A2975 RMK AO2 SLP073 60000 T10171028 51014
PAVD 131956Z 00000KT 10SM FEW018 FEW085 SCT110 M01/M02 A2974 RMK AO2 SLP069 T10111022
PAVD 131856Z 00000KT 10SM FEW018 SCT048 SCT110 M01/M02 A2973 RMK AO2 SNE52 SLP066 P0000 T10111022
PAVD 131756Z 36003KT 7SM -SN FEW018 BKN028 OVC055 01/M01 A2971 RMK AO2 SLP059 PCPN VRY LGT P0000 60001 T00061006 10028 20006 53034
PAVD 131656Z 17003KT 10SM -SN FEW025 BKN045 OVC055 01/M01 A2967
PAVD 131556Z 00000KT 10SM SCT040 BKN055 OVC060 01/M01 A2964 RMK AO2 RAE09SNB09E54 SLP037 P0000 T00111011
PAVD 131510Z COR 00000KT 10SM -SN BKN040 OVC055 02/M01 A2961 RMK AO2 RAE09SNB09 P0000
PAVD 131456Z AUTO 00000KT 10SM -RA SCT043 BKN055 OVC070 02/M01 A2961 RMK AO2 RAB04 SLP026 P0001 60001 T00171011 53039 FZRANO
PAVD 131419Z AUTO 27004KT 10SM -RA SCT027 BKN037 OVC055 02/M01 A2958 RMK AO2 RAB04 P0001 FZRANO
PAVD 131412Z AUTO 26005KT 10SM -RA FEW024 BKN029 OVC050 02/M01 A2958 RMK AO2 RAB04 P0001 FZRANO
PAVD 131356Z AUTO 30005KT 10SM BKN037 OVC046 03/M02 A2957 RMK AO2 RAE12B34E55 SLP013 P0000 T00281017
PAVD 131256Z AUTO 00000KT 10SM -RA OVC060 01/M02 A2953 RMK AO2 RAB33 SLP998 P0000 T00111017 FZRANO
PAVD 131156Z AUTO 08003KT 10SM SCT045 OVC055 02/M02 A2949 RMK AO2 RAB21E48 SLP987 P0000 60000 7//// T00221017 10022 21006 53028 FZRANO
PAVD 131056Z AUTO 00000KT 10SM SCT060 OVC075 00/M03 A2945 RMK AO2 PRESRR SLP973 T00001033 FZRANO
PAVD 130956Z AUTO 12003KT 10SM OVC080 00/M03 A2943 RMK AO2 SLP965 T00001033 FZRANO
PAVD 130856Z AUTO 13004KT 10SM FEW075 OVC095 01/M04 A2941 RMK AO2 SLP958 T00061044 400331011 51010 FZRANO
PAVD 130756Z AUTO 22004KT 10SM SCT110 02/M04 A2941 RMK AO2 SLP958 T00171044 FZRANO
PAVD 130656Z VRB04KT 10SM OVC075 02/M04 A2942 RMK AO2 SLP960 T00171044
PAVD 130556Z 12003KT 10SM OVC085 01/M04 A2938 RMK AO2 SLP948 T00111044 10017 21011 53002
PAVD 130456Z 10004KT 10SM SCT085 BKN110 M01/M03 A2937 RMK AO2 SLP945 T10061033
PAVD 130356Z 04006KT 10SM OVC075 00/M03 A2937 RMK AO2 SLP946 T00001033
PAVD 130256Z 00000KT 10SM BKN090 BKN120 00/M04 A2937 RMK AO2 SLP946 T00001039 55001